Time;durP1;ratioP1;P1;durP2;ratioP2;P2;SDS_P1;SDS_P2;PMS_P1;PMS_P2;Temp;Humidity;BMP_temperature;BMP_pressure;BME280_temperature;BME280_humidity;BME280_pressure;Samples;Min_cycle;Max_cycle;Signal;HPM_P1;HPM_P2
2021/06/18 00:01:39;;;;;;;4.43;2.78;;;;;;;25.06;46.16;100110.97;5068213;28;20048;-74
2021/06/18 00:04:05;;;;;;;4.38;3.10;;;;;;;25.05;46.16;100109.34;5068868;28;20040;-76
2021/06/18 00:06:30;;;;;;;4.50;2.97;;;;;;;25.04;46.02;100106.91;5069959;28;20255;-75
2021/06/18 00:08:56;;;;;;;3.10;2.70;;;;;;;25.00;46.44;100112.00;5069813;28;20167;-75
2021/06/18 00:11:21;;;;;;;6.53;3.20;;;;;;;24.94;46.58;100107.63;5067400;28;20032;-74
2021/06/18 00:13:46;;;;;;;4.82;3.08;;;;;;;24.84;47.13;100107.50;5074129;28;20416;-75
2021/06/18 00:16:12;;;;;;;3.53;3.00;;;;;;;24.78;46.93;100102.06;5075907;28;20238;-76
2021/06/18 00:18:39;;;;;;;4.95;3.00;;;;;;;24.74;46.48;100097.41;5066412;28;20098;-75
2021/06/18 00:21:04;;;;;;;3.25;2.72;;;;;;;24.80;45.66;100099.91;5067500;28;20119;-76
2021/06/18 00:23:29;;;;;;;3.88;2.70;;;;;;;24.89;45.06;100096.78;5067553;28;20438;-74
2021/06/18 00:25:55;;;;;;;4.88;3.00;;;;;;;24.93;44.58;100089.75;5066940;28;20051;-76
2021/06/18 00:28:20;;;;;;;3.67;2.97;;;;;;;25.08;43.99;100089.09;5065974;28;20115;-76
2021/06/18 00:30:45;;;;;;;3.67;2.92;;;;;;;25.10;43.70;100089.63;5066509;28;20492;-75
2021/06/18 00:33:11;;;;;;;5.75;2.95;;;;;;;25.14;43.70;100090.72;5069241;28;20064;-75
2021/06/18 00:35:36;;;;;;;3.72;2.67;;;;;;;25.20;43.34;100087.84;5069380;28;20032;-75
2021/06/18 00:38:02;;;;;;;3.00;2.60;;;;;;;25.23;42.69;100083.00;5070930;28;20056;-75
2021/06/18 00:40:28;;;;;;;4.43;2.60;;;;;;;25.28;43.00;100083.84;5069405;28;20111;-75
2021/06/18 00:42:54;;;;;;;3.78;2.67;;;;;;;25.35;42.58;100086.31;5070613;28;20032;-76
2021/06/18 00:45:19;;;;;;;5.82;2.60;;;;;;;25.21;43.55;100081.34;5070427;28;20514;-76
2021/06/18 00:47:58;;;;;;;5.15;2.80;;;;;;;25.16;44.12;100088.59;5069026;28;20036;-75
2021/06/18 00:50:24;;;;;;;4.72;2.88;;;;;;;25.09;44.41;100090.69;5069132;28;20043;-77
2021/06/18 00:52:49;;;;;;;3.25;2.60;;;;;;;24.89;45.14;100088.66;5071062;28;20468;-76
2021/06/18 00:55:15;;;;;;;4.40;2.53;;;;;;;24.84;45.15;100091.28;5070828;28;20169;-77
2021/06/18 00:57:41;;;;;;;3.42;2.50;;;;;;;24.72;46.18;100095.00;5062677;28;20402;-75
2021/06/18 01:00:11;;;;;;;2.90;2.40;;;;;;;24.71;45.57;100089.84;5069014;28;20028;-76
2021/06/18 01:02:37;;;;;;;3.95;2.70;;;;;;;24.70;45.70;100088.22;5069625;28;20421;-75
2021/06/18 01:05:06;;;;;;;5.05;2.88;;;;;;;24.71;45.28;100090.63;5071162;28;20098;-75
2021/06/18 01:07:35;;;;;;;4.43;2.45;;;;;;;24.56;45.67;100104.03;5070992;28;20456;-76
2021/06/18 01:10:20;;;;;;;4.82;2.40;;;;;;;24.37;46.95;100112.44;5070344;28;20068;-75
2021/06/18 01:12:56;;;;;;;2.60;2.20;;;;;;;24.31;48.41;100116.16;5055908;28;20055;-74
2021/06/18 01:15:32;;;;;;;3.00;2.10;;;;;;;24.28;46.60;100116.66;5067858;28;100991;-77
2021/06/18 01:18:04;;;;;;;2.85;2.00;;;;;;;24.19;47.31;100122.75;5071798;28;20040;-75
2021/06/18 01:21:24;;;;;;;3.05;2.10;;;;;;;24.00;47.89;100124.94;5071033;28;20032;-75
2021/06/18 01:24:22;;;;;;;3.08;2.30;;;;;;;23.85;49.33;100123.69;5023634;28;20689;-75
2021/06/18 01:27:17;;;;;;;3.42;2.30;;;;;;;23.82;47.83;100117.97;5071801;28;20060;-75
2021/06/18 01:30:04;;;;;;;3.97;2.40;;;;;;;23.82;48.44;100117.97;5072437;28;20031;-75
2021/06/18 01:32:36;;;;;;;3.55;2.70;;;;;;;23.75;48.41;100128.94;5059572;28;20044;-76
2021/06/18 01:35:01;;;;;;;3.38;2.72;;;;;;;23.64;49.80;100127.13;5070909;28;20143;-75
2021/06/18 01:37:29;;;;;;;2.78;2.28;;;;;;;23.56;49.51;100125.66;5071453;28;20546;-75
2021/06/18 01:39:57;;;;;;;2.95;2.38;;;;;;;23.50;49.62;100129.34;5072013;28;20039;-75
2021/06/18 01:42:24;;;;;;;3.58;2.30;;;;;;;23.32;50.89;100125.84;5070112;28;20132;-75
2021/06/18 01:44:51;;;;;;;4.43;3.05;;;;;;;23.17;51.85;100131.00;5071658;28;20038;-75
2021/06/18 01:47:18;;;;;;;3.10;2.25;;;;;;;23.03;52.78;100125.09;5071232;28;20052;-76
2021/06/18 01:49:43;;;;;;;2.78;2.33;;;;;;;22.95;52.16;100128.16;5071845;28;20036;-77
2021/06/18 01:52:12;;;;;;;3.28;2.20;;;;;;;22.88;54.33;100124.81;5052918;28;20044;-75
2021/06/18 01:54:39;;;;;;;3.47;2.50;;;;;;;22.89;51.98;100121.06;5050849;28;20559;-77
2021/06/18 01:57:06;;;;;;;2.65;2.28;;;;;;;22.85;52.47;100117.19;5048725;28;20052;-75
2021/06/18 01:59:36;;;;;;;2.83;2.20;;;;;;;22.86;52.73;100126.94;5052763;28;20056;-75
2021/06/18 02:02:04;;;;;;;2.95;2.35;;;;;;;22.79;53.87;100126.28;5067923;28;20423;-75
2021/06/18 02:04:31;;;;;;;2.80;2.33;;;;;;;22.71;54.27;100124.78;5070577;28;20036;-75
2021/06/18 02:06:56;;;;;;;3.28;2.38;;;;;;;22.60;52.45;100115.69;5071369;28;20044;-75
2021/06/18 02:09:24;;;;;;;3.00;2.50;;;;;;;22.49;53.78;100116.56;5069614;28;20051;-75
2021/06/18 02:11:49;;;;;;;3.00;2.50;;;;;;;22.36;53.16;100114.97;5070854;28;20505;-75
2021/06/18 02:14:18;;;;;;;3.95;2.58;;;;;;;22.27;55.64;100108.31;5070801;28;20044;-75
2021/06/18 02:16:49;;;;;;;3.13;2.40;;;;;;;22.27;54.10;100101.06;5071218;28;20145;-75
2021/06/18 02:19:17;;;;;;;3.15;2.53;;;;;;;22.36;53.37;100100.69;5071303;28;20497;-75
2021/06/18 02:21:44;;;;;;;3.50;2.40;;;;;;;22.37;53.09;100099.63;5070566;28;20416;-76
2021/06/18 02:24:10;;;;;;;3.47;2.50;;;;;;;22.34;54.67;100097.41;5069000;28;20068;-75
2021/06/18 02:26:36;;;;;;;3.33;2.50;;;;;;;22.36;52.80;100093.41;5071321;28;20083;-76
2021/06/18 02:29:01;;;;;;;2.95;2.33;;;;;;;22.41;52.83;100085.44;5070904;28;20157;-75
2021/06/18 02:31:30;;;;;;;2.83;2.10;;;;;;;22.47;51.63;100089.84;5070331;28;20071;-75
2021/06/18 02:33:55;;;;;;;3.08;2.20;;;;;;;22.53;52.43;100085.38;5059970;28;20036;-75
2021/06/18 02:36:21;;;;;;;3.08;2.20;;;;;;;22.54;51.42;100092.41;5070810;28;20036;-75
2021/06/18 02:38:48;;;;;;;3.67;2.60;;;;;;;22.59;50.27;100091.66;5070416;28;20162;-75
2021/06/18 02:41:13;;;;;;;4.95;2.42;;;;;;;22.69;49.78;100086.47;5069961;28;20082;-75
2021/06/18 02:43:39;;;;;;;3.33;2.50;;;;;;;22.77;49.51;100085.25;5069487;28;20033;-75
2021/06/18 02:46:04;;;;;;;2.92;2.42;;;;;;;22.84;49.16;100075.97;5071030;28;20033;-76
2021/06/18 02:48:32;;;;;;;3.35;2.50;;;;;;;22.85;49.27;100066.78;5066941;28;20106;-75
2021/06/18 02:51:28;;;;;;;5.07;2.50;;;;;;;22.87;49.04;100069.25;5070332;28;20177;-75
2021/06/18 02:54:08;;;;;;;3.88;2.30;;;;;;;22.86;48.89;100065.75;5068881;28;20047;-75
2021/06/18 02:56:58;;;;;;;4.05;2.20;;;;;;;22.87;48.86;100069.25;5068726;28;20216;-75
2021/06/18 02:59:47;;;;;;;4.30;2.60;;;;;;;22.89;48.63;100072.53;5050782;28;20083;-75
2021/06/18 03:02:17;;;;;;;3.90;2.45;;;;;;;22.90;48.69;100079.53;5068602;28;20373;-74
2021/06/18 03:04:44;;;;;;;3.60;2.80;;;;;;;22.93;49.39;100121.38;5070267;28;20412;-74
2021/06/18 03:07:23;;;;;;;4.57;3.83;;;;;;;22.82;52.55;100117.69;5068229;28;20056;-75
2021/06/18 03:09:50;;;;;;;5.45;3.90;;;;;;;22.78;51.96;100103.06;5069562;28;20427;-75
2021/06/18 03:12:17;;;;;;;5.47;4.25;;;;;;;22.73;55.70;100127.22;5070130;28;20138;-75
2021/06/18 03:14:45;;;;;;;7.22;5.38;;;;;;;22.80;54.45;100157.56;5069816;28;20036;-76
2021/06/18 03:17:16;;;;;;;9.82;6.57;;;;;;;22.82;56.36;100174.31;5070369;28;20120;-75
2021/06/18 03:19:43;;;;;;;;;;;;;;;22.69;55.91;100160.06;5070348;28;20025;-78
2021/06/18 03:22:11;;;;;;;6.68;5.32;;;;;;;22.66;55.70;100173.19;5068816;28;19922;-75
2021/06/18 03:24:38;;;;;;;8.30;5.93;;;;;;;22.57;57.88;100191.63;5068525;28;20033;-75
2021/06/18 03:27:04;;;;;;;8.35;6.60;;;;;;;22.62;57.18;100180.97;5069105;28;20120;-76
2021/06/18 03:29:30;;;;;;;8.27;6.30;;;;;;;22.50;57.26;100198.19;5069954;28;20548;-75
2021/06/18 03:31:57;;;;;;;6.50;5.57;;;;;;;22.43;57.48;100184.88;5069387;28;20029;-75
2021/06/18 03:34:24;;;;;;;6.28;5.18;;;;;;;22.50;56.90;100190.13;5067419;28;20093;-75
2021/06/18 03:36:51;;;;;;;7.15;5.30;;;;;;;22.47;56.72;100199.50;5069239;28;20033;-76
2021/06/18 03:39:19;;;;;;;8.10;5.30;;;;;;;22.47;57.81;100196.81;5069831;28;20041;-75
2021/06/18 03:41:44;;;;;;;7.95;6.28;;;;;;;22.45;58.47;100197.06;5069588;28;20033;-75
2021/06/18 03:44:10;;;;;;;7.75;6.05;;;;;;;22.43;59.54;100193.78;5068273;28;20041;-75
2021/06/18 03:46:38;;;;;;;8.30;6.47;;;;;;;22.41;60.29;100200.47;5069788;28;20033;-75
2021/06/18 03:49:05;;;;;;;6.68;5.97;;;;;;;22.39;60.95;100213.34;5066713;28;20123;-75
2021/06/18 03:51:31;;;;;;;7.35;6.45;;;;;;;22.37;59.60;100204.69;5068433;28;20395;-74
2021/06/18 03:53:57;;;;;;;7.80;6.30;;;;;;;22.34;61.16;100208.66;5069842;28;20029;-75
2021/06/18 03:56:22;;;;;;;8.73;6.60;;;;;;;22.32;60.30;100204.59;5063751;28;20043;-74
2021/06/18 03:58:49;;;;;;;10.77;8.32;;;;;;;22.36;60.42;100203.88;5069447;28;20028;-75
2021/06/18 04:01:16;;;;;;;9.07;7.38;;;;;;;22.40;61.65;100207.69;5066011;28;20033;-75
2021/06/18 04:03:49;;;;;;;7.95;6.90;;;;;;;22.39;62.89;100213.34;5069163;28;20032;-76
2021/06/18 04:06:15;;;;;;;7.55;6.60;;;;;;;22.33;62.88;100203.50;5068675;28;20037;-75
2021/06/18 04:08:41;;;;;;;8.50;7.60;;;;;;;22.27;63.57;100210.69;5068291;28;20425;-74
2021/06/18 04:11:08;;;;;;;6.75;5.85;;;;;;;22.29;61.50;100205.88;5069268;28;20063;-75
2021/06/18 04:13:36;;;;;;;7.63;6.20;;;;;;;22.34;61.78;100199.78;5069039;28;20039;-75
2021/06/18 04:16:02;;;;;;;7.90;7.10;;;;;;;22.29;63.95;100215.84;5068332;28;20107;-75
2021/06/18 04:18:32;;;;;;;8.85;7.28;;;;;;;22.23;63.58;100204.13;5068906;28;20037;-75
2021/06/18 04:21:02;;;;;;;7.32;6.53;;;;;;;22.19;63.41;100206.44;5069462;28;20045;-75
2021/06/18 04:23:30;;;;;;;8.85;6.53;;;;;;;22.17;64.13;100207.75;5069281;28;20032;-75
2021/06/18 04:25:57;;;;;;;7.20;6.03;;;;;;;22.19;62.79;100206.44;5069805;28;20519;-76
2021/06/18 04:28:22;;;;;;;5.60;5.07;;;;;;;22.27;62.07;100202.59;5067146;28;20047;-75
2021/06/18 04:30:48;;;;;;;8.23;6.30;;;;;;;22.31;63.60;100209.16;5068838;28;20033;-75
2021/06/18 04:33:13;;;;;;;7.70;6.78;;;;;;;22.29;62.19;100203.19;5061457;28;20105;-75
2021/06/18 04:35:39;;;;;;;6.20;5.60;;;;;;;;;;5066946;28;20172;-76
2021/06/18 04:38:04;;;;;;;6.80;5.80;;;;;;;22.51;61.10;100194.47;5067736;28;20047;-74
2021/06/18 04:40:29;;;;;;;7.95;6.22;;;;;;;22.67;60.82;100188.31;5066539;28;20267;-75
2021/06/18 04:42:55;;;;;;;6.72;5.70;;;;;;;22.79;60.34;100185.59;5068561;28;20033;-75
2021/06/18 04:45:21;;;;;;;6.50;5.78;;;;;;;22.84;61.09;100193.75;5068403;28;20047;-76
2021/06/18 04:47:46;;;;;;;7.15;5.63;;;;;;;22.94;59.86;100187.75;5058337;28;20025;-75
2021/06/18 04:50:12;;;;;;;8.88;5.30;;;;;;;23.00;59.58;100190.31;5065199;28;20033;-75
2021/06/18 04:52:41;;;;;;;8.05;6.07;;;;;;;23.08;59.25;100198.00;5067936;28;20036;-75
2021/06/18 04:55:09;;;;;;;7.05;5.80;;;;;;;23.10;58.72;100192.38;5067265;28;20037;-74
2021/06/18 04:57:34;;;;;;;6.85;5.20;;;;;;;23.14;58.96;100201.59;5057288;28;20033;-76
2021/06/18 05:00:00;;;;;;;5.82;5.22;;;;;;;23.12;59.50;100209.16;5066233;28;20032;-76
2021/06/18 05:02:25;;;;;;;5.82;5.22;;;;;;;23.08;59.60;100214.19;5055074;28;20401;-75
2021/06/18 05:04:50;;;;;;;6.28;5.20;;;;;;;23.04;59.23;100209.53;5067092;28;20041;-75
2021/06/18 05:07:16;;;;;;;5.53;4.90;;;;;;;23.07;60.53;100215.25;5068115;28;20063;-75
2021/06/18 05:09:41;;;;;;;5.85;5.25;;;;;;;23.00;60.68;100220.00;5068767;28;20040;-75
2021/06/18 05:12:07;;;;;;;6.38;5.45;;;;;;;23.07;60.01;100219.81;5067252;28;20039;-75
2021/06/18 05:14:32;;;;;;;9.05;5.75;;;;;;;23.17;59.70;100232.66;5067832;28;20469;-76
2021/06/18 05:16:57;;;;;;;6.22;4.90;;;;;;;23.27;59.85;100239.06;5068777;28;20044;-75
2021/06/18 05:19:22;;;;;;;7.10;5.20;;;;;;;23.38;59.83;100237.34;5070243;28;20397;-74
2021/06/18 05:21:48;;;;;;;10.95;6.85;;;;;;;23.49;59.80;100239.19;5071945;28;20036;-75
2021/06/18 05:24:13;;;;;;;8.95;6.82;;;;;;;23.60;60.29;100247.47;5071793;28;20033;-75
2021/06/18 05:26:39;;;;;;;10.90;7.57;;;;;;;23.63;61.94;100239.69;5072196;28;20040;-76
2021/06/18 05:29:04;;;;;;;10.40;6.32;;;;;;;23.70;61.66;100240.34;5071460;28;20032;-75
2021/06/18 05:31:29;;;;;;;7.47;6.60;;;;;;;23.86;60.41;100238.72;5072131;28;20048;-75
2021/06/18 05:33:55;;;;;;;10.00;6.70;;;;;;;23.93;60.47;100230.44;5071634;28;20032;-75
2021/06/18 05:36:20;;;;;;;9.40;7.22;;;;;;;24.02;60.59;100237.06;5071406;28;20294;-75
2021/06/18 05:38:46;;;;;;;8.52;7.50;;;;;;;24.19;60.40;100237.03;5071591;28;20528;-74
2021/06/18 05:41:11;;;;;;;9.43;7.25;;;;;;;24.29;59.97;100234.50;5071715;28;20029;-76
2021/06/18 05:43:36;;;;;;;9.57;6.85;;;;;;;24.37;60.10;100238.63;5071277;28;20645;-75
2021/06/18 05:46:02;;;;;;;7.82;6.72;;;;;;;24.47;59.51;100236.09;5071925;28;20037;-76
2021/06/18 05:48:28;;;;;;;9.43;6.93;;;;;;;24.55;59.32;100248.34;5070484;28;20060;-74
2021/06/18 05:50:54;;;;;;;9.65;6.30;;;;;;;24.81;58.64;100252.16;5071938;28;20035;-76
2021/06/18 05:53:24;;;;;;;7.15;6.43;;;;;;;25.10;57.85;100236.56;5071926;28;20036;-74
2021/06/18 05:55:49;;;;;;;8.25;6.15;;;;;;;25.55;56.79;100238.09;5069547;28;20032;-75
2021/06/18 05:58:15;;;;;;;6.40;5.35;;;;;;;25.98;55.20;100238.97;5071101;28;20048;-75
2021/06/18 06:00:44;;;;;;;6.95;5.10;;;;;;;26.34;55.06;100238.34;5065594;28;20069;-75
2021/06/18 06:03:10;;;;;;;7.22;5.13;;;;;;;26.71;54.95;100238.25;5062337;28;20032;-75
2021/06/18 06:05:36;;;;;;;7.30;5.85;;;;;;;26.98;53.71;100243.50;5070180;28;20032;-75
2021/06/18 06:08:01;;;;;;;5.60;5.00;;;;;;;27.30;53.16;100247.94;5071049;28;20033;-75
2021/06/18 06:10:27;;;;;;;6.78;5.72;;;;;;;27.67;49.76;100252.28;5071072;28;20045;-76
2021/06/18 06:12:52;;;;;;;6.78;5.80;;;;;;;28.12;50.69;100245.19;5069427;28;20032;-75
2021/06/18 06:15:17;;;;;;;5.82;4.70;;;;;;;28.54;49.48;100238.56;5071330;28;20028;-75
2021/06/18 06:17:44;;;;;;;7.75;6.38;;;;;;;28.95;48.12;100239.16;5071409;28;20496;-75
2021/06/18 06:20:10;;;;;;;6.72;5.60;;;;;;;29.13;48.02;100239.66;5064939;28;20411;-76
2021/06/18 06:22:36;;;;;;;6.43;5.57;;;;;;;29.56;47.11;100232.50;5070255;28;20493;-75
2021/06/18 06:25:03;;;;;;;5.38;4.57;;;;;;;29.99;45.32;100231.88;5071518;28;20047;-76
2021/06/18 06:27:28;;;;;;;6.25;4.55;;;;;;;30.20;44.73;100238.72;5070717;28;20532;-75
2021/06/18 06:29:55;;;;;;;4.80;4.40;;;;;;;30.23;43.41;100235.41;5069708;28;20028;-75
2021/06/18 06:32:20;;;;;;;5.65;4.70;;;;;;;30.52;45.69;100234.53;5069415;28;20033;-76
2021/06/18 06:34:45;;;;;;;4.65;4.10;;;;;;;30.86;44.27;100237.09;5065435;28;20059;-75
2021/06/18 06:37:11;;;;;;;6.10;4.57;;;;;;;30.90;41.94;100231.88;5067472;28;20028;-74
2021/06/18 06:39:36;;;;;;;6.85;5.32;;;;;;;31.10;43.29;100237.03;5066872;28;20586;-73
2021/06/18 06:42:02;;;;;;;5.97;5.03;;;;;;;31.19;42.82;100225.47;5070042;28;20052;-74
2021/06/18 06:44:28;;;;;;;5.25;4.70;;;;;;;31.46;42.53;100220.13;5069071;28;20048;-76
2021/06/18 06:46:53;;;;;;;5.97;4.70;;;;;;;31.52;42.48;100213.44;5070240;28;20154;-74
2021/06/18 06:49:19;;;;;;;4.90;4.35;;;;;;;31.66;41.18;100215.41;5070375;28;20041;-74
2021/06/18 06:51:44;;;;;;;7.95;5.13;;;;;;;32.01;39.60;100219.44;5071206;28;20055;-74
2021/06/18 06:54:09;;;;;;;6.93;5.40;;;;;;;31.91;39.77;100211.41;5070168;28;20036;-75
2021/06/18 06:56:36;;;;;;;6.45;5.15;;;;;;;31.85;39.51;100204.41;5062582;28;20091;-74
2021/06/18 06:59:02;;;;;;;6.22;5.47;;;;;;;31.98;40.60;100209.09;5070830;28;20040;-74
2021/06/18 07:01:28;;;;;;;6.65;4.78;;;;;;;32.15;40.20;100201.13;5068651;28;20501;-73
2021/06/18 07:03:53;;;;;;;6.72;5.47;;;;;;;32.37;39.19;100205.88;5068556;28;20044;-74
2021/06/18 07:06:19;;;;;;;6.20;5.20;;;;;;;32.53;38.54;100198.16;5070745;28;20036;-74
2021/06/18 07:08:44;;;;;;;8.70;5.45;;;;;;;32.59;39.32;100198.88;5069994;28;20401;-74
2021/06/18 07:11:10;;;;;;;5.53;4.97;;;;;;;32.88;40.05;100203.16;5067465;28;20029;-74
2021/06/18 07:13:35;;;;;;;5.88;5.28;;;;;;;33.27;37.46;100205.25;5060382;28;20493;-74
2021/06/18 07:16:00;;;;;;;6.63;5.57;;;;;;;33.42;38.52;100207.63;5069204;28;20089;-76
2021/06/18 07:18:26;;;;;;;7.63;5.55;;;;;;;33.43;38.38;100191.97;5069888;28;20039;-74
2021/06/18 07:20:52;;;;;;;7.50;5.57;;;;;;;33.42;37.35;100193.91;5068172;28;20486;-74
2021/06/18 07:23:17;;;;;;;8.18;6.25;;;;;;;33.79;38.03;100191.06;5069626;28;20040;-76
2021/06/18 07:25:44;;;;;;;6.85;5.63;;;;;;;33.98;36.79;100185.31;5069746;28;20046;-75
2021/06/18 07:28:10;;;;;;;7.32;4.80;;;;;;;34.34;37.02;100190.63;5069658;28;20393;-74
2021/06/18 07:30:37;;;;;;;7.47;5.53;;;;;;;34.67;36.96;100196.50;5069981;28;20485;-74
2021/06/18 07:33:03;;;;;;;5.35;4.85;;;;;;;34.72;36.14;100195.56;5070345;28;20036;-74
2021/06/18 07:35:30;;;;;;;5.80;4.88;;;;;;;35.01;36.92;100194.91;5070195;28;20040;-75
2021/06/18 07:37:56;;;;;;;5.20;4.70;;;;;;;34.82;36.18;100197.16;5068651;28;20517;-74
2021/06/18 07:40:21;;;;;;;7.07;5.63;;;;;;;35.00;34.84;100198.78;5070178;28;20127;-74
2021/06/18 07:42:47;;;;;;;6.07;4.70;;;;;;;34.91;36.70;100188.94;5068860;28;20560;-74
2021/06/18 07:45:13;;;;;;;8.00;5.47;;;;;;;34.93;35.20;100182.00;5068235;28;20040;-74
2021/06/18 07:47:40;;;;;;;6.18;5.25;;;;;;;34.95;35.17;100189.91;5069118;28;20037;-74
2021/06/18 07:50:23;;;;;;;5.50;5.00;;;;;;;35.31;34.95;100195.88;5069215;28;20036;-74
2021/06/18 07:52:49;;;;;;;7.85;5.30;;;;;;;35.62;34.10;100188.56;5069651;28;20047;-75
2021/06/18 07:55:23;;;;;;;6.28;5.43;;;;;;;35.47;33.35;100187.13;5069399;28;20036;-76
2021/06/18 07:57:48;;;;;;;7.63;5.40;;;;;;;35.10;34.32;100183.94;5066733;28;20386;-74
2021/06/18 08:00:14;;;;;;;8.85;6.10;;;;;;;35.24;34.00;100181.81;5069008;28;20041;-75
2021/06/18 08:02:40;;;;;;;7.40;5.00;;;;;;;35.38;34.46;100189.06;5069693;28;20037;-75
2021/06/18 08:05:06;;;;;;;5.88;4.57;;;;;;;35.49;34.48;100182.91;5069794;28;20032;-75
2021/06/18 08:07:32;;;;;;;6.38;5.70;;;;;;;36.08;33.04;100193.19;5069544;28;20040;-75
2021/06/18 08:09:57;;;;;;;7.57;5.53;;;;;;;35.91;32.55;100187.78;5068238;28;20080;-75
2021/06/18 08:12:22;;;;;;;6.07;4.67;;;;;;;35.43;33.22;100191.66;5069342;28;20366;-75
2021/06/18 08:14:51;;;;;;;8.35;6.05;;;;;;;35.96;32.34;100195.06;5069757;28;20290;-75
2021/06/18 08:17:17;;;;;;;7.90;6.32;;;;;;;35.94;32.23;100184.38;5069964;28;20210;-75
2021/06/18 08:19:42;;;;;;;7.20;5.70;;;;;;;34.87;34.53;100178.59;5068157;28;20078;-78
2021/06/18 08:22:08;;;;;;;9.35;5.13;;;;;;;35.54;33.24;100179.16;5069153;28;20129;-75
2021/06/18 08:24:35;;;;;;;6.50;5.00;;;;;;;36.16;32.47;100106.25;5068245;28;20566;-75
2021/06/18 08:27:02;;;;;;;5.38;4.88;;;;;;;36.43;31.35;100183.97;5069498;28;20059;-76
2021/06/18 08:29:27;;;;;;;8.25;6.13;;;;;;;36.75;30.70;100183.25;5069195;28;20032;-76
2021/06/18 08:31:53;;;;;;;5.28;4.40;;;;;;;36.60;32.13;100186.63;5068409;28;20040;-75
2021/06/18 08:34:18;;;;;;;5.85;5.00;;;;;;;36.71;31.59;100178.78;5065906;28;20037;-75
2021/06/18 08:36:44;;;;;;;5.78;4.40;;;;;;;36.83;31.45;100183.50;5069698;28;20037;-75
2021/06/18 08:39:09;;;;;;;7.35;4.32;;;;;;;37.06;30.51;100184.00;5068776;28;20400;-74
2021/06/18 08:41:35;;;;;;;5.95;4.20;;;;;;;37.21;30.31;100183.38;5068656;28;20047;-74
2021/06/18 08:44:00;;;;;;;4.90;4.35;;;;;;;37.11;29.34;100183.78;5069946;28;20040;-75
2021/06/18 08:46:25;;;;;;;6.32;4.75;;;;;;;37.10;29.65;100188.50;5068624;28;20448;-76
2021/06/18 08:48:51;;;;;;;6.95;4.80;;;;;;;37.66;29.05;100195.56;5067261;28;20029;-76
2021/06/18 08:51:17;;;;;;;4.65;4.25;;;;;;;37.67;30.51;100191.66;5068954;28;20057;-75
2021/06/18 08:53:43;;;;;;;3.75;3.30;;;;;;;38.17;28.90;100191.34;5071617;28;20293;-75
2021/06/18 08:56:09;;;;;;;4.80;4.00;;;;;;;38.71;28.30;100189.44;5072514;28;20585;-75
2021/06/18 08:58:35;;;;;;;6.80;4.40;;;;;;;38.75;27.56;100184.81;5055201;28;20036;-76
2021/06/18 09:01:00;;;;;;;5.40;4.45;;;;;;;37.37;29.12;100178.81;5072769;28;20056;-75
2021/06/18 09:03:45;;;;;;;8.02;4.43;;;;;;;37.32;29.77;100183.75;5071436;28;20064;-75
2021/06/18 09:06:26;;;;;;;9.02;5.03;;;;;;;37.74;27.13;100181.66;5065473;28;20110;-75
2021/06/18 09:09:14;;;;;;;;;;;;;;;37.56;27.16;100180.25;5071572;28;20521;-76
2021/06/18 09:11:47;;;;;;;4.30;3.40;;;;;;;36.40;28.97;100179.94;5060999;28;20041;-75
2021/06/18 09:14:26;;;;;;;5.10;3.72;;;;;;;36.66;29.68;100181.72;5071164;28;20040;-75
2021/06/18 09:17:19;;;;;;;5.55;3.90;;;;;;;36.80;28.23;100168.47;5072591;28;20516;-77
2021/06/18 09:19:51;;;;;;;5.30;4.00;;;;;;;37.29;27.72;100168.69;5052597;28;20064;-75
2021/06/18 09:22:23;;;;;;;6.20;4.25;;;;;;;37.31;28.14;100169.16;5063266;28;20044;-75
2021/06/18 09:24:59;;;;;;;5.75;3.70;;;;;;;37.07;27.83;100166.34;5071592;28;20535;-75
2021/06/18 09:27:33;;;;;;;4.13;3.70;;;;;;;37.03;27.74;100163.41;5071989;28;20036;-75
2021/06/18 09:30:15;;;;;;;6.47;4.18;;;;;;;36.81;27.65;100163.78;5071077;28;20570;-76
2021/06/18 09:33:01;;;;;;;5.10;4.03;;;;;;;36.02;29.75;100158.75;5071731;28;20032;-75
2021/06/18 09:35:28;;;;;;;4.38;3.45;;;;;;;36.09;30.10;100164.59;5060415;28;20033;-75
2021/06/18 09:37:56;;;;;;;5.53;3.75;;;;;;;36.42;29.32;100163.88;5071826;28;20092;-75
2021/06/18 09:40:22;;;;;;;5.45;3.47;;;;;;;35.69;29.87;100153.91;5071595;28;20188;-76
2021/06/18 09:42:48;;;;;;;3.67;3.00;;;;;;;35.50;31.21;100150.72;5072099;28;20057;-75
2021/06/18 09:45:16;;;;;;;5.35;3.88;;;;;;;35.60;30.05;100153.13;5072241;28;20067;-75
2021/06/18 09:47:42;;;;;;;4.22;3.65;;;;;;;35.80;29.99;100153.53;5071708;28;20504;-75
2021/06/18 09:50:13;;;;;;;5.28;3.80;;;;;;;35.79;31.40;100147.22;5071641;28;20037;-75
2021/06/18 09:52:39;;;;;;;4.93;3.75;;;;;;;35.78;30.60;100139.28;5071712;28;20093;-75
2021/06/18 09:55:05;;;;;;;5.05;3.30;;;;;;;35.59;31.14;100148.75;5071891;28;20033;-76
2021/06/18 09:57:43;;;;;;;3.90;3.33;;;;;;;35.70;30.51;100141.75;5061279;28;20059;-75
2021/06/18 10:00:12;;;;;;;5.03;3.78;;;;;;;36.27;30.42;100146.00;5054829;28;20081;-75
2021/06/18 10:02:48;;;;;;;6.45;3.88;;;;;;;36.86;28.52;100149.78;5051939;28;20043;-76
2021/06/18 10:05:21;;;;;;;4.93;3.70;;;;;;;36.57;28.89;100148.72;5070132;28;20045;-76
2021/06/18 10:07:50;;;;;;;4.97;3.20;;;;;;;36.86;29.04;100147.84;5071650;28;20466;-74
2021/06/18 10:10:30;;;;;;;4.53;3.85;;;;;;;37.33;27.71;100143.97;5072127;28;20036;-75
2021/06/18 10:12:56;;;;;;;4.78;3.78;;;;;;;37.30;28.12;100152.94;5056742;28;20075;-75
2021/06/18 10:15:23;;;;;;;5.78;4.55;;;;;;;37.17;29.34;100146.59;5068044;28;20124;-75
2021/06/18 10:17:53;;;;;;;7.47;4.93;;;;;;;37.27;29.54;100142.59;5071819;28;20032;-76
2021/06/18 10:20:28;;;;;;;6.72;5.10;;;;;;;37.44;29.07;100147.09;5063638;28;20051;-75
2021/06/18 10:22:58;;;;;;;6.47;4.45;;;;;;;37.24;32.36;100146.84;5068857;28;20043;-74
2021/06/18 10:25:59;;;;;;;6.03;4.85;;;;;;;37.50;29.29;100143.00;5069247;28;20044;-75
2021/06/18 10:28:30;;;;;;;6.07;4.65;;;;;;;37.19;29.52;100150.63;5059028;28;20501;-74
2021/06/18 10:30:57;;;;;;;5.82;4.80;;;;;;;37.28;30.32;100149.72;5064548;28;20405;-75
2021/06/18 10:33:25;;;;;;;7.15;5.43;;;;;;;37.06;30.53;100150.91;5050126;28;20469;-76
2021/06/18 10:36:03;;;;;;;6.38;5.30;;;;;;;36.98;30.45;100147.06;5063733;28;21427;-75
2021/06/18 10:38:42;;;;;;;6.68;5.20;;;;;;;37.19;30.23;100147.06;5058864;28;20436;-74
2021/06/18 10:41:16;;;;;;;5.18;4.68;;;;;;;37.21;31.58;100153.06;5071087;28;20052;-74
2021/06/18 10:43:47;;;;;;;7.88;5.75;;;;;;;37.38;31.97;100141.03;5070828;28;20059;-74
2021/06/18 10:46:29;;;;;;;6.95;5.30;;;;;;;37.39;31.74;100140.66;5069462;28;20045;-75
2021/06/18 10:49:06;;;;;;;5.75;4.53;;;;;;;37.22;33.17;100143.63;5069738;28;20028;-74
2021/06/18 10:51:50;;;;;;;9.05;6.00;;;;;;;37.45;31.12;100143.19;5068067;28;20029;-76
2021/06/18 10:54:44;;;;;;;7.25;5.32;;;;;;;37.36;31.66;100132.28;5071635;28;20029;-74
2021/06/18 10:57:23;;;;;;;9.32;5.65;;;;;;;37.34;32.17;100132.59;5072440;28;20040;-75
2021/06/18 10:59:50;;;;;;;7.00;5.67;;;;;;;37.46;31.73;100131.81;5069870;28;20508;-75
2021/06/18 11:02:21;;;;;;;4.95;4.38;;;;;;;37.39;33.96;100131.59;5069597;28;20029;-75
2021/06/18 11:04:57;;;;;;;7.53;5.90;;;;;;;37.19;33.86;100133.28;5070094;28;20051;-74
2021/06/18 11:07:29;;;;;;;8.00;6.15;;;;;;;37.61;31.74;100130.38;5070844;28;20029;-74
2021/06/18 11:09:58;;;;;;;8.27;5.70;;;;;;;37.71;30.99;100129.94;5070456;28;20029;-75
2021/06/18 11:12:24;;;;;;;6.72;4.97;;;;;;;37.74;32.63;100123.72;5070375;28;20496;-75
2021/06/18 11:14:53;;;;;;;5.85;4.97;;;;;;;37.65;32.52;100130.50;5062695;28;20071;-74
2021/06/18 11:17:36;;;;;;;6.00;5.40;;;;;;;37.66;32.91;100124.63;5050500;28;20028;-74
2021/06/18 11:20:07;;;;;;;7.13;5.93;;;;;;;37.88;31.08;100122.53;5049952;28;20132;-75
2021/06/18 11:22:46;;;;;;;6.47;5.88;;;;;;;37.90;30.66;100117.50;5049606;28;20187;-75
2021/06/18 11:25:36;;;;;;;6.38;5.10;;;;;;;37.79;30.02;100122.69;5048598;28;20158;-74
2021/06/18 11:28:23;;;;;;;5.10;4.60;;;;;;;37.61;32.37;100120.16;5048268;28;20072;-75
2021/06/18 11:30:50;;;;;;;7.72;5.60;;;;;;;37.45;30.27;100121.94;5063936;28;20037;-74
2021/06/18 11:33:41;;;;;;;5.93;4.53;;;;;;;37.14;33.26;100128.00;5048336;28;20299;-75
2021/06/18 11:38:42;;;;;;;6.10;4.97;;;;;;;36.49;32.66;100128.34;5049540;28;20044;-74